createdAt,value
2022-12-25T00:00:39.090Z,27.31
2022-12-25T00:03:06.005Z,27.00
2022-12-25T00:05:32.822Z,26.89
2022-12-25T00:07:59.577Z,27.14
2022-12-25T00:10:26.308Z,27.15
2022-12-25T00:12:53.095Z,27.15
2022-12-25T00:15:19.993Z,26.71
2022-12-25T00:17:46.924Z,27.19
2022-12-25T00:20:13.679Z,26.99
2022-12-25T00:22:40.499Z,27.18
2022-12-25T00:25:07.316Z,26.91
2022-12-25T00:27:34.081Z,27.13
2022-12-25T00:30:00.864Z,27.20
2022-12-25T00:32:27.604Z,26.90
2022-12-25T00:34:54.382Z,26.94
2022-12-25T00:37:21.137Z,27.20
2022-12-25T00:39:47.871Z,26.94
2022-12-25T00:42:20.678Z,27.00
2022-12-25T00:44:47.436Z,27.38
2022-12-25T00:47:14.263Z,27.10
2022-12-25T00:49:41.077Z,27.34
2022-12-25T00:52:07.871Z,26.74
2022-12-25T00:54:34.611Z,26.95
2022-12-25T00:57:01.780Z,27.31
2022-12-25T00:59:28.548Z,27.17
2022-12-25T01:01:55.360Z,27.13
2022-12-25T01:04:22.188Z,27.04
2022-12-25T01:06:48.990Z,26.80
2022-12-25T01:09:34.338Z,26.88
2022-12-25T01:12:01.154Z,26.75
2022-12-25T01:14:27.905Z,27.13
2022-12-25T01:16:54.716Z,27.21
2022-12-25T01:19:21.466Z,27.11
2022-12-25T01:21:48.199Z,26.78
2022-12-25T01:24:14.966Z,27.23
2022-12-25T01:26:41.723Z,27.17
2022-12-25T01:29:08.441Z,26.97
2022-12-25T01:31:35.323Z,27.27
2022-12-25T01:34:02.141Z,26.90
2022-12-25T01:36:28.880Z,27.27
2022-12-25T01:38:55.747Z,26.95
2022-12-25T01:41:22.518Z,26.97
2022-12-25T01:43:49.268Z,27.09
2022-12-25T01:46:16.615Z,27.00
2022-12-25T01:48:43.444Z,26.73
2022-12-25T01:51:10.245Z,26.71
2022-12-25T01:53:36.991Z,26.73
2022-12-25T01:56:03.765Z,26.84
2022-12-25T01:58:30.580Z,26.88
2022-12-25T02:00:57.418Z,27.22
2022-12-25T02:03:24.291Z,27.11
2022-12-25T02:05:51.071Z,27.10
2022-12-25T02:08:17.879Z,26.92
2022-12-25T02:10:44.710Z,26.85
2022-12-25T02:13:11.485Z,26.79
2022-12-25T02:15:38.309Z,27.17
2022-12-25T02:18:05.059Z,27.13
2022-12-25T02:20:31.879Z,26.80
2022-12-25T02:22:58.638Z,26.66
2022-12-25T02:25:25.448Z,27.15
2022-12-25T02:27:52.252Z,26.79
2022-12-25T02:30:19.101Z,26.97
2022-12-25T02:32:45.875Z,26.69
2022-12-25T02:35:12.886Z,26.95
2022-12-25T02:37:39.783Z,26.72
2022-12-25T02:40:06.709Z,26.67
2022-12-25T02:42:51.991Z,26.80
2022-12-25T02:45:37.453Z,27.02
2022-12-25T02:48:22.870Z,26.78
2022-12-25T02:51:08.185Z,27.10
2022-12-25T02:53:53.591Z,27.06
2022-12-25T02:56:38.887Z,27.13
2022-12-25T02:59:24.489Z,26.79
2022-12-25T03:02:09.875Z,26.97
2022-12-25T03:04:55.262Z,27.09
2022-12-25T03:07:22.105Z,26.76
2022-12-25T03:10:07.445Z,27.17
2022-12-25T03:12:34.236Z,27.13
2022-12-25T03:15:19.663Z,27.13
2022-12-25T03:17:46.429Z,26.88
2022-12-25T03:20:31.775Z,26.88
2022-12-25T03:23:17.017Z,26.73
2022-12-25T03:26:02.177Z,27.08
2022-12-25T03:28:28.926Z,26.84
2022-12-25T03:31:13.924Z,26.93
2022-12-25T03:34:00.778Z,26.70
2022-12-25T03:36:28.152Z,26.94
2022-12-25T03:39:27.448Z,26.78
2022-12-25T03:42:12.731Z,26.47
2022-12-25T03:44:57.988Z,27.04
2022-12-25T03:47:43.264Z,26.64
2022-12-25T03:50:28.660Z,26.78
2022-12-25T03:53:14.055Z,27.10
2022-12-25T03:55:59.303Z,26.99
2022-12-25T03:58:44.664Z,26.94
2022-12-25T04:01:30.296Z,26.77
2022-12-25T04:04:16.003Z,26.50
2022-12-25T04:07:01.298Z,26.64
2022-12-25T04:09:46.719Z,26.97
2022-12-25T04:12:32.058Z,26.59
2022-12-25T04:15:17.281Z,27.04
2022-12-25T04:18:02.608Z,27.14
2022-12-25T04:20:47.848Z,26.96
2022-12-25T04:23:33.129Z,26.74
2022-12-25T04:26:18.555Z,26.80
2022-12-25T04:29:03.846Z,27.06
2022-12-25T04:31:49.373Z,26.56
2022-12-25T04:34:34.562Z,26.94
2022-12-25T04:37:01.345Z,26.98
2022-12-25T04:39:28.143Z,27.06
2022-12-25T04:41:55.044Z,26.80
2022-12-25T04:44:21.854Z,26.81
2022-12-25T04:46:48.644Z,26.86
2022-12-25T04:49:15.506Z,27.05
2022-12-25T04:51:42.266Z,26.85
2022-12-25T04:54:09.033Z,26.89
2022-12-25T04:56:41.718Z,26.65
2022-12-25T04:59:12.263Z,26.76
2022-12-25T05:01:39.120Z,27.04
2022-12-25T05:04:05.959Z,26.96
2022-12-25T05:06:32.740Z,26.86
2022-12-25T05:08:59.481Z,26.84
2022-12-25T05:11:26.803Z,26.96
2022-12-25T05:13:53.581Z,26.87
2022-12-25T05:16:20.799Z,26.68
2022-12-25T05:18:47.664Z,26.68
2022-12-25T05:21:14.397Z,26.95
2022-12-25T05:23:48.464Z,26.39
2022-12-25T05:26:15.443Z,26.73
2022-12-25T05:28:42.303Z,26.49
2022-12-25T05:31:09.099Z,26.64
2022-12-25T05:33:36.429Z,26.57
2022-12-25T05:36:03.533Z,26.63
2022-12-25T05:38:30.274Z,26.94
2022-12-25T05:40:57.062Z,26.62
2022-12-25T05:43:24.003Z,26.58
2022-12-25T05:45:50.738Z,26.99
2022-12-25T05:48:17.542Z,26.54
2022-12-25T05:50:44.299Z,27.03
2022-12-25T05:53:11.119Z,26.72
2022-12-25T05:55:37.907Z,26.45
2022-12-25T05:58:04.662Z,26.48
2022-12-25T06:00:32.068Z,26.79
2022-12-25T06:02:59.014Z,26.63
2022-12-25T06:05:25.838Z,26.73
2022-12-25T06:07:52.583Z,26.74
2022-12-25T06:10:19.382Z,26.95
2022-12-25T06:12:46.175Z,26.97
2022-12-25T06:15:13.023Z,26.78
2022-12-25T06:17:40.004Z,26.71
2022-12-25T06:20:06.879Z,26.79
2022-12-25T06:22:33.606Z,26.80
2022-12-25T06:25:00.595Z,26.78
2022-12-25T06:27:28.296Z,26.83
2022-12-25T06:29:55.100Z,26.81
2022-12-25T06:32:21.859Z,26.90
2022-12-25T06:34:48.755Z,26.76
2022-12-25T06:37:15.500Z,26.83
2022-12-25T06:39:42.244Z,26.52
2022-12-25T06:42:08.995Z,26.80
2022-12-25T06:44:35.738Z,26.68
2022-12-25T06:47:02.512Z,26.67
2022-12-25T06:49:29.238Z,26.62
2022-12-25T06:51:56.006Z,26.88
2022-12-25T06:54:22.747Z,27.05
2022-12-25T06:56:50.914Z,26.76
2022-12-25T06:59:17.666Z,26.54
2022-12-25T07:01:44.627Z,26.45
2022-12-25T07:04:11.546Z,26.51
2022-12-25T07:06:38.289Z,26.58
2022-12-25T07:09:05.040Z,26.86
2022-12-25T07:11:31.782Z,26.94
2022-12-25T07:13:58.557Z,26.35
2022-12-25T07:16:25.329Z,26.80
2022-12-25T07:18:52.136Z,26.62
2022-12-25T07:21:18.881Z,26.54
2022-12-25T07:23:45.641Z,26.41
2022-12-25T07:26:12.419Z,26.82
2022-12-25T07:28:39.179Z,26.61
2022-12-25T07:31:05.939Z,26.88
2022-12-25T07:33:32.695Z,26.84
2022-12-25T07:35:59.429Z,26.78
2022-12-25T07:38:26.182Z,26.54
2022-12-25T07:40:52.986Z,26.45
2022-12-25T07:43:19.713Z,26.40
2022-12-25T07:45:46.504Z,26.96
2022-12-25T07:48:16.674Z,26.62
2022-12-25T07:50:43.871Z,26.35
2022-12-25T07:53:10.665Z,26.73
2022-12-25T07:55:37.402Z,26.17
2022-12-25T07:58:04.196Z,26.74
2022-12-25T08:00:34.088Z,26.85
2022-12-25T08:03:01.067Z,26.74
2022-12-25T08:05:27.991Z,26.56
2022-12-25T08:07:57.676Z,26.49
2022-12-25T08:10:24.852Z,26.40
2022-12-25T08:12:51.952Z,26.61
2022-12-25T08:15:18.755Z,26.54
2022-12-25T08:17:45.934Z,26.32
2022-12-25T08:20:12.749Z,26.60
2022-12-25T08:22:39.539Z,26.71
2022-12-25T08:25:06.339Z,26.61
2022-12-25T08:27:33.142Z,26.61
2022-12-25T08:29:59.886Z,26.49
2022-12-25T08:32:27.263Z,26.80
2022-12-25T08:34:54.040Z,26.38
2022-12-25T08:37:20.784Z,26.51
2022-12-25T08:39:47.527Z,26.68
2022-12-25T08:42:15.211Z,26.69
2022-12-25T08:44:42.013Z,26.56
2022-12-25T08:47:08.772Z,26.78
2022-12-25T08:49:35.564Z,26.58
2022-12-25T08:52:02.527Z,26.50
2022-12-25T08:54:31.900Z,26.64
2022-12-25T08:57:02.689Z,26.57
2022-12-25T08:59:29.919Z,26.24
2022-12-25T09:01:56.771Z,26.58
2022-12-25T09:04:23.661Z,26.46
2022-12-25T09:06:51.017Z,26.56
2022-12-25T09:09:17.774Z,26.76
2022-12-25T09:11:44.552Z,26.87
2022-12-25T09:14:13.475Z,26.78
2022-12-25T09:16:40.244Z,26.37
2022-12-25T09:19:07.158Z,26.73
2022-12-25T09:21:34.010Z,26.43
2022-12-25T09:24:00.804Z,26.39
2022-12-25T09:26:27.604Z,26.22
2022-12-25T09:28:54.346Z,26.55
2022-12-25T09:31:21.259Z,26.51
2022-12-25T09:33:48.370Z,26.27
2022-12-25T09:36:15.142Z,26.45
2022-12-25T09:38:41.888Z,26.51
2022-12-25T09:41:08.619Z,26.37
2022-12-25T09:43:35.365Z,26.68
2022-12-25T09:46:02.187Z,26.79
2022-12-25T09:48:29.051Z,26.48
2022-12-25T09:50:55.803Z,26.59
2022-12-25T09:53:22.590Z,26.49
2022-12-25T09:55:49.689Z,26.80
2022-12-25T09:58:16.472Z,26.77
2022-12-25T10:00:43.342Z,26.42
2022-12-25T10:03:10.223Z,26.69
2022-12-25T10:05:37.083Z,26.59
2022-12-25T10:08:03.827Z,26.41
2022-12-25T10:10:30.550Z,26.33
2022-12-25T10:12:57.357Z,26.61
2022-12-25T10:15:24.251Z,26.33
2022-12-25T10:17:50.999Z,26.18
2022-12-25T10:20:17.837Z,26.34
2022-12-25T10:22:44.676Z,26.37
2022-12-25T10:25:12.205Z,26.35
2022-12-25T10:27:38.972Z,26.41
2022-12-25T10:30:05.799Z,26.62
2022-12-25T10:32:32.535Z,26.65
2022-12-25T10:34:59.285Z,26.68
2022-12-25T10:37:26.021Z,26.42
2022-12-25T10:39:52.799Z,26.38
2022-12-25T10:42:19.539Z,26.42
2022-12-25T10:44:46.267Z,26.05
2022-12-25T10:47:13.125Z,26.31
2022-12-25T10:49:39.878Z,26.41
2022-12-25T10:52:06.627Z,26.29
2022-12-25T10:54:33.387Z,26.35
2022-12-25T10:57:00.153Z,26.52
2022-12-25T10:59:27.678Z,26.46
2022-12-25T11:01:55.611Z,26.21
2022-12-25T11:04:22.677Z,26.22
2022-12-25T11:06:49.414Z,26.28
2022-12-25T11:09:16.167Z,26.25
2022-12-25T11:11:42.925Z,26.51
2022-12-25T11:14:09.649Z,26.37
2022-12-25T11:16:37.846Z,26.37
2022-12-25T11:19:04.785Z,26.54
2022-12-25T11:21:31.514Z,26.38
2022-12-25T11:23:58.456Z,26.37
2022-12-25T11:26:25.207Z,26.55
2022-12-25T11:28:51.993Z,26.32
2022-12-25T11:31:21.954Z,26.53
2022-12-25T11:33:48.794Z,26.69
2022-12-25T11:36:15.535Z,26.75
2022-12-25T11:38:42.277Z,26.33
2022-12-25T11:41:09.814Z,26.52
2022-12-25T11:43:36.548Z,26.48
2022-12-25T11:46:03.289Z,26.22
2022-12-25T11:48:30.033Z,26.55
2022-12-25T11:50:56.802Z,26.36
2022-12-25T11:53:23.528Z,26.33
2022-12-25T11:55:54.764Z,26.79
2022-12-25T11:58:21.547Z,26.52
2022-12-25T12:00:48.493Z,26.38
2022-12-25T12:03:15.347Z,26.18
2022-12-25T12:05:42.151Z,26.62
2022-12-25T12:08:08.892Z,26.59
2022-12-25T12:10:35.653Z,26.63
2022-12-25T12:13:02.399Z,26.28
2022-12-25T12:15:29.220Z,26.53
2022-12-25T12:17:55.994Z,26.23
2022-12-25T12:20:22.735Z,26.24
2022-12-25T12:22:49.486Z,26.54
2022-12-25T12:25:16.262Z,26.22
2022-12-25T12:27:42.994Z,26.55
2022-12-25T12:30:09.738Z,26.45
2022-12-25T12:32:36.732Z,26.63
2022-12-25T12:35:03.481Z,26.66
2022-12-25T12:37:30.265Z,26.63
2022-12-25T12:39:57.184Z,26.58
2022-12-25T12:42:25.801Z,26.34
2022-12-25T12:44:52.567Z,26.51
2022-12-25T12:47:19.313Z,26.25
2022-12-25T12:49:46.047Z,26.52
2022-12-25T12:52:12.789Z,26.44
2022-12-25T12:54:39.528Z,26.38
2022-12-25T12:57:06.312Z,26.38
2022-12-25T12:59:33.054Z,26.59
2022-12-25T13:01:59.978Z,26.44
2022-12-25T13:04:28.534Z,26.58
2022-12-25T13:06:55.279Z,26.45
2022-12-25T13:09:22.049Z,26.51
2022-12-25T13:11:48.795Z,26.31
2022-12-25T13:14:15.567Z,26.27
2022-12-25T13:16:42.359Z,26.73
2022-12-25T13:19:09.098Z,26.39
2022-12-25T13:21:35.873Z,26.14
2022-12-25T13:24:02.679Z,26.31
2022-12-25T13:26:30.516Z,26.53
2022-12-25T13:28:57.307Z,26.20
2022-12-25T13:31:24.303Z,26.64
2022-12-25T13:33:51.122Z,26.42
2022-12-25T13:36:17.899Z,26.71
2022-12-25T13:38:44.645Z,26.37
2022-12-25T13:41:30.537Z,26.21
2022-12-25T13:43:57.292Z,26.30
2022-12-25T13:46:24.065Z,26.38
2022-12-25T13:48:50.878Z,26.43
2022-12-25T13:51:17.756Z,26.50
2022-12-25T13:53:44.732Z,26.25
2022-12-25T13:56:11.555Z,26.48
2022-12-25T13:58:39.203Z,26.44
2022-12-25T14:01:05.998Z,26.59
2022-12-25T14:03:32.852Z,26.40
2022-12-25T14:05:59.650Z,26.30
2022-12-25T14:08:26.424Z,26.42
2022-12-25T14:10:53.210Z,26.60
2022-12-25T14:13:19.961Z,26.71
2022-12-25T14:15:47.859Z,26.64
2022-12-25T14:18:14.659Z,26.25
2022-12-25T14:20:41.431Z,26.27
2022-12-25T14:23:08.189Z,26.12
2022-12-25T14:25:34.921Z,26.22
2022-12-25T14:28:01.674Z,26.22
2022-12-25T14:30:28.486Z,26.62
2022-12-25T14:32:55.825Z,26.47
2022-12-25T14:35:23.830Z,26.42
2022-12-25T14:37:50.840Z,26.29
2022-12-25T14:40:17.564Z,26.44
2022-12-25T14:42:44.783Z,26.46
2022-12-25T14:45:11.517Z,26.58
2022-12-25T14:47:38.235Z,26.60
2022-12-25T14:50:04.969Z,26.64
2022-12-25T14:52:31.711Z,26.30
2022-12-25T14:54:58.462Z,26.57
2022-12-25T14:57:25.249Z,26.26
2022-12-25T14:59:51.980Z,26.69
2022-12-25T15:02:21.990Z,26.72
2022-12-25T15:04:49.148Z,26.54
2022-12-25T15:07:15.946Z,26.38
2022-12-25T15:09:42.695Z,26.30
2022-12-25T15:12:09.474Z,26.33
2022-12-25T15:14:38.297Z,26.61
2022-12-25T15:17:05.079Z,26.27
2022-12-25T15:19:37.005Z,26.35
2022-12-25T15:22:04.742Z,26.37
2022-12-25T15:24:31.710Z,26.37
2022-12-25T15:27:00.152Z,26.58
2022-12-25T15:29:52.164Z,26.71
2022-12-25T15:32:13.766Z,26.36
2022-12-25T15:34:40.541Z,26.75
2022-12-25T15:37:07.319Z,26.48
2022-12-25T15:39:34.086Z,26.19
2022-12-25T15:42:12.938Z,26.43
2022-12-25T15:44:39.776Z,26.46
2022-12-25T15:47:06.535Z,26.40
2022-12-25T15:49:33.300Z,26.28
2022-12-25T15:52:00.146Z,26.72
2022-12-25T15:54:27.153Z,26.56
2022-12-25T15:56:53.889Z,26.37
2022-12-25T15:59:20.675Z,26.43
2022-12-25T16:01:47.473Z,26.56
2022-12-25T16:04:14.320Z,26.70
2022-12-25T16:06:41.203Z,26.87
2022-12-25T16:09:07.942Z,26.66
2022-12-25T16:11:34.842Z,26.79
2022-12-25T16:14:01.661Z,26.59
2022-12-25T16:16:28.521Z,26.68
2022-12-25T16:18:55.337Z,26.32
2022-12-25T16:21:22.213Z,26.69
2022-12-25T16:23:48.971Z,26.74
2022-12-25T16:26:15.751Z,26.53
2022-12-25T16:28:42.517Z,26.37
2022-12-25T16:31:09.272Z,26.82
2022-12-25T16:33:36.032Z,26.51
2022-12-25T16:36:02.807Z,26.47
2022-12-25T16:38:31.492Z,26.55
2022-12-25T16:40:58.246Z,26.58
2022-12-25T16:43:25.014Z,26.96
2022-12-25T16:45:51.735Z,26.44
2022-12-25T16:48:18.589Z,26.50
2022-12-25T16:50:45.339Z,26.23
2022-12-25T16:53:14.903Z,26.66
2022-12-25T16:55:41.689Z,26.37
2022-12-25T16:58:08.503Z,26.82
2022-12-25T17:00:35.369Z,26.53
2022-12-25T17:03:02.492Z,26.75
2022-12-25T17:05:29.374Z,26.76
2022-12-25T17:07:56.148Z,26.42
2022-12-25T17:10:22.920Z,26.83
2022-12-25T17:12:49.835Z,26.54
2022-12-25T17:15:16.671Z,26.47
2022-12-25T17:17:43.477Z,26.41
2022-12-25T17:20:10.335Z,26.38
2022-12-25T17:22:37.103Z,26.56
2022-12-25T17:25:03.939Z,26.43
2022-12-25T17:27:30.681Z,26.48
2022-12-25T17:29:57.464Z,26.87
2022-12-25T17:32:24.245Z,26.75
2022-12-25T17:34:51.084Z,26.48
2022-12-25T17:37:17.870Z,26.62
2022-12-25T17:39:44.696Z,26.41
2022-12-25T17:42:11.530Z,26.79
2022-12-25T17:44:38.285Z,26.88
2022-12-25T17:47:05.188Z,26.78
2022-12-25T17:49:32.040Z,26.59
2022-12-25T17:51:58.784Z,26.43
2022-12-25T17:54:25.550Z,26.88
2022-12-25T17:56:52.333Z,26.52
2022-12-25T17:59:19.323Z,26.74
2022-12-25T18:01:46.746Z,26.86
2022-12-25T18:04:13.689Z,26.55
2022-12-25T18:06:40.525Z,26.68
2022-12-25T18:09:07.319Z,26.77
2022-12-25T18:11:36.887Z,26.66
2022-12-25T18:14:03.836Z,26.71
2022-12-25T18:16:30.592Z,26.76
2022-12-25T18:18:59.393Z,26.67
2022-12-25T18:21:26.372Z,26.98
2022-12-25T18:23:53.133Z,26.84
2022-12-25T18:26:20.100Z,26.62
2022-12-25T18:28:46.846Z,26.79
2022-12-25T18:31:13.825Z,26.69
2022-12-25T18:33:40.648Z,26.97
2022-12-25T18:36:07.395Z,26.70
2022-12-25T18:38:34.156Z,26.88
2022-12-25T18:41:00.955Z,26.93
2022-12-25T18:43:51.421Z,26.45
2022-12-25T18:46:15.361Z,26.92
2022-12-25T18:48:42.389Z,26.54
2022-12-25T18:51:09.220Z,26.62
2022-12-25T18:53:35.977Z,26.87
2022-12-25T18:56:02.736Z,26.51
2022-12-25T18:58:29.485Z,26.65
2022-12-25T19:00:56.346Z,26.78
2022-12-25T19:03:23.205Z,26.81
2022-12-25T19:05:49.957Z,26.95
2022-12-25T19:08:16.738Z,26.57
2022-12-25T19:10:43.529Z,26.60
2022-12-25T19:13:10.270Z,26.65
2022-12-25T19:15:37.123Z,26.73
2022-12-25T19:18:03.857Z,27.10
2022-12-25T19:20:30.629Z,26.93
2022-12-25T19:22:57.400Z,27.09
2022-12-25T19:25:24.196Z,26.82
2022-12-25T19:27:50.969Z,26.78
2022-12-25T19:30:18.182Z,26.74
2022-12-25T19:32:44.982Z,26.91
2022-12-25T19:35:11.777Z,26.60
2022-12-25T19:37:38.529Z,26.62
2022-12-25T19:40:05.290Z,26.82
2022-12-25T19:42:32.353Z,26.82
2022-12-25T19:44:59.112Z,26.46
2022-12-25T19:47:26.041Z,26.84
2022-12-25T19:49:53.682Z,26.83
2022-12-25T19:52:21.696Z,26.75
2022-12-25T19:54:48.450Z,27.12
2022-12-25T19:57:15.186Z,26.87
2022-12-25T19:59:41.963Z,27.03
2022-12-25T20:02:08.867Z,27.11
2022-12-25T20:04:35.696Z,27.08
2022-12-25T20:07:02.550Z,26.96
2022-12-25T20:09:30.952Z,26.63
2022-12-25T20:11:57.742Z,26.92
2022-12-25T20:14:24.509Z,26.87
2022-12-25T20:16:51.335Z,26.75
2022-12-25T20:19:18.178Z,26.89
2022-12-25T20:21:45.675Z,26.85
2022-12-25T20:24:12.503Z,26.70
2022-12-25T20:26:39.338Z,26.86
2022-12-25T20:29:06.127Z,26.85
2022-12-25T20:31:32.942Z,26.72
2022-12-25T20:33:59.700Z,27.17
2022-12-25T20:36:31.047Z,27.12
2022-12-25T20:39:01.338Z,26.84
2022-12-25T20:41:29.563Z,26.84
2022-12-25T20:43:56.713Z,26.91
2022-12-25T20:46:23.739Z,27.18
2022-12-25T20:48:51.678Z,26.95
2022-12-25T20:51:18.412Z,27.22
2022-12-25T20:53:45.175Z,26.70
2022-12-25T20:56:11.949Z,27.19
2022-12-25T20:58:38.690Z,27.03
2022-12-25T21:01:05.999Z,27.12
2022-12-25T21:03:32.885Z,27.02
2022-12-25T21:05:59.782Z,26.79
2022-12-25T21:08:26.971Z,26.93
2022-12-25T21:10:53.820Z,27.11
2022-12-25T21:13:20.583Z,27.19
2022-12-25T21:15:47.359Z,27.10
2022-12-25T21:18:14.154Z,26.96
2022-12-25T21:20:40.966Z,26.80
2022-12-25T21:23:07.699Z,26.77
2022-12-25T21:25:34.460Z,27.23
2022-12-25T21:28:01.227Z,27.05
2022-12-25T21:30:28.068Z,27.18
2022-12-25T21:33:16.778Z,27.30
2022-12-25T21:35:43.976Z,27.02
2022-12-25T21:38:10.703Z,26.90
2022-12-25T21:40:37.462Z,26.98
2022-12-25T21:43:04.243Z,27.25
2022-12-25T21:45:31.062Z,27.10
2022-12-25T21:48:02.617Z,27.05
2022-12-25T21:50:48.772Z,27.03
2022-12-25T21:53:15.537Z,27.05
2022-12-25T21:55:42.296Z,26.97
2022-12-25T21:58:09.028Z,27.32
2022-12-25T22:00:35.865Z,26.83
2022-12-25T22:03:02.799Z,26.77
2022-12-25T22:05:48.348Z,26.95
2022-12-25T22:08:15.098Z,27.20
2022-12-25T22:10:41.857Z,27.27
2022-12-25T22:13:27.312Z,26.90
2022-12-25T22:16:12.720Z,27.33
2022-12-25T22:18:58.130Z,27.30
2022-12-25T22:21:24.861Z,27.16
2022-12-25T22:23:51.750Z,26.93
2022-12-25T22:26:21.054Z,27.18
2022-12-25T22:28:48.244Z,27.33
2022-12-25T22:31:15.049Z,27.28
2022-12-25T22:33:41.943Z,27.33
2022-12-25T22:36:08.799Z,27.06
2022-12-25T22:38:35.541Z,27.11
2022-12-25T22:41:02.278Z,27.13
2022-12-25T22:44:06.403Z,27.20
2022-12-25T22:46:15.870Z,27.21
2022-12-25T22:48:42.673Z,26.93
2022-12-25T22:51:09.415Z,27.37
2022-12-25T22:53:36.269Z,27.18
2022-12-25T22:56:03.015Z,27.14
2022-12-25T22:58:29.773Z,27.35
2022-12-25T23:00:56.541Z,27.38
2022-12-25T23:03:23.377Z,27.20
2022-12-25T23:05:50.199Z,27.04
2022-12-25T23:08:16.995Z,27.34
2022-12-25T23:10:43.781Z,27.44
2022-12-25T23:13:29.137Z,27.35
2022-12-25T23:15:55.932Z,27.34
2022-12-25T23:18:41.660Z,27.04
2022-12-25T23:21:27.120Z,27.29
2022-12-25T23:24:12.561Z,27.07
2022-12-25T23:26:39.352Z,27.16
2022-12-25T23:29:24.918Z,27.23
2022-12-25T23:31:53.436Z,27.26
2022-12-25T23:34:20.244Z,27.03
2022-12-25T23:36:47.113Z,27.07
2022-12-25T23:39:13.844Z,27.27
2022-12-25T23:41:40.615Z,27.14
2022-12-25T23:44:07.372Z,27.16
2022-12-25T23:46:34.155Z,27.38
2022-12-25T23:49:01.078Z,27.42
2022-12-25T23:51:27.839Z,27.33
2022-12-25T23:53:54.816Z,27.32
2022-12-25T23:56:21.555Z,27.16
2022-12-25T23:58:51.929Z,27.34
